Time;durP1;ratioP1;P1;durP2;ratioP2;P2;SDS_P1;SDS_P2;PMS_P1;PMS_P2;Temp;Humidity;BMP_temperature;BMP_pressure;BME280_temperature;BME280_humidity;BME280_pressure;Samples;Min_cycle;Max_cycle;Signal;HPM_P1;HPM_P2
2022/11/12 00:00:33;;;;;;;15.02;7.95;;;10.50;99.40;;;;;;5000260;28;20040;-77
2022/11/12 00:02:59;;;;;;;13.30;8.18;;;10.50;99.40;;;;;;5000527;28;20034;-78
2022/11/12 00:05:25;;;;;;;11.38;7.32;;;10.50;99.40;;;;;;4999243;28;20025;-77
2022/11/12 00:07:51;;;;;;;15.05;8.07;;;10.50;99.30;;;;;;5000130;28;20025;-78
2022/11/12 00:10:17;;;;;;;11.25;7.70;;;10.50;99.30;;;;;;4999681;28;20034;-76
2022/11/12 00:12:43;;;;;;;16.33;7.35;;;10.50;99.30;;;;;;4996875;28;20177;-78
2022/11/12 00:15:10;;;;;;;14.02;6.95;;;10.50;99.40;;;;;;5001587;28;20029;-79
2022/11/12 00:17:36;;;;;;;13.63;6.90;;;10.40;99.40;;;;;;5001981;28;20113;-79
2022/11/12 00:20:02;;;;;;;10.88;6.78;;;10.40;99.40;;;;;;5000327;28;20041;-79
2022/11/12 00:22:27;;;;;;;9.90;6.82;;;10.40;99.40;;;;;;4998912;28;20623;-79
2022/11/12 00:24:53;;;;;;;10.95;6.57;;;10.40;99.40;;;;;;5000857;28;20030;-79
2022/11/12 00:27:19;;;;;;;10.50;5.95;;;10.40;99.40;;;;;;4997532;28;20053;-78
2022/11/12 00:29:44;;;;;;;10.82;6.57;;;10.40;99.30;;;;;;4999443;28;20409;-78
2022/11/12 00:32:11;;;;;;;11.02;7.03;;;10.40;99.30;;;;;;4998896;28;20033;-78
2022/11/12 00:34:36;;;;;;;11.63;6.90;;;10.30;99.30;;;;;;4997823;28;20140;-79
2022/11/12 00:37:03;;;;;;;9.13;6.32;;;10.30;99.40;;;;;;4999919;28;20549;-79
2022/11/12 00:39:29;;;;;;;12.10;7.63;;;10.30;99.40;;;;;;4998680;28;20042;-78
2022/11/12 00:41:55;;;;;;;11.10;6.15;;;10.30;99.40;;;;;;4998355;28;20440;-78
2022/11/12 00:44:20;;;;;;;10.95;7.25;;;10.30;99.40;;;;;;4998258;28;20050;-78
2022/11/12 00:46:46;;;;;;;11.45;7.47;;;10.30;99.40;;;;;;4998927;28;20041;-78
2022/11/12 00:49:13;;;;;;;12.90;7.20;;;10.30;99.30;;;;;;4998520;28;20334;-79
2022/11/12 00:51:39;;;;;;;10.07;6.07;;;10.30;99.30;;;;;;4999479;28;20574;-78
2022/11/12 00:54:07;;;;;;;11.95;6.75;;;10.30;99.30;;;;;;4998905;28;20572;-79
2022/11/12 00:56:33;;;;;;;9.52;6.45;;;10.30;99.30;;;;;;4997333;28;20231;-78
2022/11/12 00:58:59;;;;;;;11.77;7.22;;;10.20;99.30;;;;;;4998046;28;20108;-79
2022/11/12 01:01:26;;;;;;;13.02;7.25;;;10.20;99.50;;;;;;4999602;28;20061;-79
2022/11/12 01:03:52;;;;;;;10.57;7.07;;;10.20;99.30;;;;;;5000114;28;20475;-78
2022/11/12 01:06:21;;;;;;;10.82;7.22;;;10.20;99.30;;;;;;4998041;28;20097;-78
2022/11/12 01:08:47;;;;;;;12.10;7.43;;;10.20;99.30;;;;;;5000629;28;20042;-79
2022/11/12 01:11:19;;;;;;;11.82;6.68;;;10.20;99.30;;;;;;4997879;28;20481;-79
2022/11/12 01:13:46;;;;;;;9.82;6.95;;;10.20;99.30;;;;;;4999271;28;20042;-79
2022/11/12 01:16:16;;;;;;;12.07;7.30;;;10.20;99.30;;;;;;5003095;28;20052;-78
2022/11/12 01:18:43;;;;;;;9.50;6.25;;;10.20;99.20;;;;;;4998134;28;20038;-78
2022/11/12 01:21:12;;;;;;;9.68;6.63;;;10.30;99.20;;;;;;4999903;28;20030;-78
2022/11/12 01:23:39;;;;;;;11.70;6.45;;;10.20;99.20;;;;;;5002132;28;20030;-78
2022/11/12 01:26:11;;;;;;;9.43;6.28;;;10.20;99.20;;;;;;5001676;28;20113;-78
2022/11/12 01:28:37;;;;;;;9.43;6.43;;;10.20;99.20;;;;;;5000972;28;20037;-76
2022/11/12 01:31:12;;;;;;;13.02;6.82;;;10.20;99.10;;;;;;5002674;28;20026;-76
2022/11/12 01:33:40;;;;;;;12.85;6.82;;;10.20;99.10;;;;;;5001112;28;20530;-76
2022/11/12 01:36:06;;;;;;;9.70;5.68;;;10.20;99.10;;;;;;5001497;28;20085;-76
2022/11/12 01:38:37;;;;;;;12.00;6.47;;;10.20;99.10;;;;;;5000157;28;20742;-76
2022/11/12 01:41:03;;;;;;;10.00;6.50;;;10.20;99.10;;;;;;5001225;28;20049;-76
2022/11/12 01:43:29;;;;;;;10.70;6.47;;;10.20;99.10;;;;;;5001684;28;20057;-77
2022/11/12 01:45:56;;;;;;;10.65;6.63;;;10.20;99.10;;;;;;5001804;28;20025;-76
2022/11/12 01:48:38;;;;;;;11.13;6.38;;;10.20;99.10;;;;;;5003599;28;20105;-76
2022/11/12 01:51:08;;;;;;;11.38;6.68;;;10.20;99.00;;;;;;5021454;28;20034;-77
2022/11/12 01:53:48;;;;;;;10.52;6.65;;;10.20;99.00;;;;;;5023427;28;20041;-76
2022/11/12 01:56:16;;;;;;;9.43;5.88;;;10.20;99.00;;;;;;5007083;28;20069;-77
2022/11/12 01:58:44;;;;;;;7.65;5.55;;;10.20;99.20;;;;;;5005286;28;21109;-76
2022/11/12 02:01:15;;;;;;;11.70;6.15;;;10.20;99.00;;;;;;5005123;28;20037;-77
2022/11/12 02:03:40;;;;;;;9.20;6.07;;;10.20;99.00;;;;;;5004178;28;20018;-76
2022/11/12 02:06:10;;;;;;;8.90;5.75;;;10.10;98.90;;;;;;5005201;28;20033;-76
2022/11/12 02:08:37;;;;;;;8.32;5.43;;;10.20;98.90;;;;;;5020311;28;20395;-76
2022/11/12 02:11:15;;;;;;;9.25;5.68;;;10.20;98.90;;;;;;5005125;28;20486;-76
2022/11/12 02:13:59;;;;;;;8.13;5.72;;;10.20;98.90;;;;;;5006886;28;20493;-76
2022/11/12 02:16:37;;;;;;;7.22;4.57;;;10.20;98.80;;;;;;5002519;28;20121;-76
2022/11/12 02:19:05;;;;;;;7.95;5.22;;;10.20;98.80;;;;;;5001879;28;20095;-76
2022/11/12 02:21:32;;;;;;;9.65;5.25;;;10.20;98.80;;;;;;5002097;28;20038;-77
2022/11/12 02:23:59;;;;;;;9.38;5.57;;;10.20;98.80;;;;;;5000733;28;20095;-76
2022/11/12 02:26:28;;;;;;;9.40;5.78;;;10.20;98.80;;;;;;5001774;28;20037;-76
2022/11/12 02:28:54;;;;;;;9.52;4.72;;;10.20;98.80;;;;;;5001558;28;20552;-76
2022/11/12 02:31:20;;;;;;;7.05;4.55;;;10.20;98.70;;;;;;5000041;28;20041;-79
2022/11/12 02:33:45;;;;;;;8.32;5.65;;;10.20;98.70;;;;;;5001601;28;20033;-74
2022/11/12 02:36:11;;;;;;;9.88;5.03;;;10.20;98.70;;;;;;5002913;28;20105;-78
2022/11/12 02:38:37;;;;;;;9.75;5.05;;;10.20;98.70;;;;;;5002117;28;20045;-77
2022/11/12 02:41:02;;;;;;;9.07;5.15;;;10.20;98.70;;;;;;5001196;28;20030;-70
2022/11/12 02:43:28;;;;;;;7.25;4.63;;;10.20;98.70;;;;;;5001114;28;20046;-71
2022/11/12 02:45:54;;;;;;;7.85;5.30;;;10.10;98.70;;;;;;5001129;28;20116;-71
2022/11/12 02:48:19;;;;;;;7.13;4.20;;;10.20;98.70;;;;;;5000132;28;20022;-71
2022/11/12 02:50:46;;;;;;;8.50;5.18;;;10.20;98.70;;;;;;5000312;28;20050;-71
2022/11/12 02:53:12;;;;;;;7.03;4.30;;;10.20;98.70;;;;;;4998799;28;20504;-71
2022/11/12 02:55:38;;;;;;;6.47;4.70;;;10.10;98.70;;;;;;4997546;28;20030;-72
2022/11/12 02:58:04;;;;;;;6.30;4.53;;;10.20;98.70;;;;;;4998384;28;20687;-72
2022/11/12 03:00:29;;;;;;;8.15;4.65;;;10.20;98.70;;;;;;5000116;28;20036;-72
2022/11/12 03:02:58;;;;;;;6.80;4.30;;;10.20;98.70;;;;;;4999952;28;20038;-71
2022/11/12 03:05:30;;;;;;;8.20;4.63;;;10.20;98.70;;;;;;4999361;28;20022;-71
2022/11/12 03:07:58;;;;;;;6.03;4.00;;;10.20;98.70;;;;;;5001020;28;20048;-72
2022/11/12 03:10:24;;;;;;;6.97;4.35;;;10.20;98.70;;;;;;5002958;28;20022;-71
2022/11/12 03:12:50;;;;;;;6.65;4.18;;;10.20;98.70;;;;;;5000460;28;20065;-71
2022/11/12 03:15:16;;;;;;;6.70;4.40;;;10.10;98.60;;;;;;5000011;28;21014;-71
2022/11/12 03:17:42;;;;;;;9.80;4.50;;;10.10;98.70;;;;;;5000591;28;20072;-72
2022/11/12 03:20:09;;;;;;;8.82;4.78;;;10.10;98.70;;;;;;5001353;28;20072;-72
2022/11/12 03:22:36;;;;;;;9.18;4.28;;;10.10;98.70;;;;;;4999573;28;20484;-72
2022/11/12 03:25:02;;;;;;;10.40;5.10;;;10.10;98.70;;;;;;4999731;28;20515;-72
2022/11/12 03:27:27;;;;;;;7.60;4.43;;;10.00;98.70;;;;;;5001627;28;21863;-72
2022/11/12 03:29:53;;;;;;;9.25;4.65;;;10.10;98.70;;;;;;4999784;28;20153;-72
2022/11/12 03:32:18;;;;;;;9.25;5.55;;;10.00;98.60;;;;;;4998750;28;20033;-72
2022/11/12 03:34:44;;;;;;;10.52;4.55;;;10.00;98.60;;;;;;4998882;28;20030;-72
2022/11/12 03:37:10;;;;;;;7.85;4.47;;;10.00;98.60;;;;;;4999943;28;20148;-72
2022/11/12 03:39:36;;;;;;;7.68;5.35;;;10.00;98.60;;;;;;5000418;28;20519;-72
2022/11/12 03:42:02;;;;;;;6.63;4.18;;;10.00;98.50;;;;;;4999144;28;21029;-72
2022/11/12 03:44:27;;;;;;;5.80;4.28;;;9.90;98.50;;;;;;4998005;28;20050;-72
2022/11/12 03:46:53;;;;;;;8.20;4.25;;;9.90;98.50;;;;;;4998776;28;20049;-72
2022/11/12 03:49:18;;;;;;;7.35;4.47;;;9.90;98.50;;;;;;4998339;28;20084;-72
2022/11/12 03:51:45;;;;;;;6.80;4.28;;;9.90;98.50;;;;;;4998236;28;20025;-72
2022/11/12 03:54:11;;;;;;;7.43;4.93;;;9.80;98.50;;;;;;4997994;28;20041;-72
2022/11/12 03:56:37;;;;;;;5.70;3.45;;;9.90;98.50;;;;;;4998066;28;20029;-72
2022/11/12 03:59:03;;;;;;;9.63;4.72;;;9.80;98.50;;;;;;4999929;28;20793;-72
2022/11/12 04:01:29;;;;;;;7.97;4.47;;;9.80;98.50;;;;;;4998492;28;20033;-72
2022/11/12 04:03:55;;;;;;;6.65;4.00;;;9.70;98.50;;;;;;4998164;28;20033;-72
2022/11/12 04:09:05;;;;;;;7.03;4.40;;;9.80;98.50;;;;;;4999989;28;20045;-73
2022/11/12 04:11:32;;;;;;;6.68;4.40;;;9.70;98.50;;;;;;4999099;28;20037;-72
2022/11/12 04:13:58;;;;;;;7.32;4.40;;;9.70;98.50;;;;;;4999662;28;20034;-72
2022/11/12 04:22:00;;;;;;;7.30;3.90;;;9.70;98.50;;;;;;5005422;28;20037;-72
2022/11/12 04:27:20;;;;;;;6.53;4.07;;;9.60;98.60;;;;;;5010360;28;20588;-72
2022/11/12 04:32:34;;;;;;;8.35;3.70;;;9.50;98.60;;;;;;5000447;28;20092;-71
2022/11/12 04:35:01;;;;;;;6.55;3.65;;;9.50;98.60;;;;;;5002422;28;20030;-70
2022/11/12 04:37:42;;;;;;;5.82;4.13;;;9.50;98.60;;;;;;4998690;28;20034;-71
2022/11/12 04:45:53;;;;;;;5.93;3.40;;;9.40;98.60;;;;;;4998002;28;20059;-71
2022/11/12 04:48:23;;;;;;;5.15;3.58;;;9.40;98.60;;;;;;4996970;28;20041;-71
2022/11/12 04:50:54;;;;;;;5.57;3.72;;;9.30;98.60;;;;;;4999029;28;20153;-71
2022/11/12 04:53:20;;;;;;;7.72;4.00;;;9.30;98.60;;;;;;4998072;28;20125;-71
2022/11/12 04:55:57;;;;;;;7.18;3.85;;;9.30;98.60;;;;;;4998658;28;20070;-71
2022/11/12 04:58:23;;;;;;;6.97;4.30;;;9.30;98.60;;;;;;5002477;28;20065;-71
2022/11/12 05:00:50;;;;;;;5.00;3.58;;;9.20;98.60;;;;;;5003704;28;20044;-71
2022/11/12 05:03:16;;;;;;;7.03;4.05;;;9.20;98.60;;;;;;5002218;28;20040;-71
2022/11/12 05:05:42;;;;;;;6.10;3.47;;;9.20;98.60;;;;;;5001823;28;20701;-71
2022/11/12 05:08:07;;;;;;;8.90;3.75;;;9.20;98.60;;;;;;5001567;28;20029;-71
2022/11/12 05:10:33;;;;;;;6.13;3.67;;;9.10;98.60;;;;;;5004167;28;20034;-71
2022/11/12 05:12:59;;;;;;;7.78;3.90;;;9.10;98.70;;;;;;5005893;28;20030;-71
2022/11/12 05:15:25;;;;;;;6.95;4.30;;;9.10;98.70;;;;;;5001696;28;20033;-70
2022/11/12 05:17:51;;;;;;;5.60;3.95;;;9.20;98.70;;;;;;5001217;28;20060;-71
2022/11/12 05:20:17;;;;;;;7.20;3.92;;;9.10;98.80;;;;;;5002008;28;20061;-72
2022/11/12 05:22:43;;;;;;;5.72;3.95;;;9.00;98.90;;;;;;5002646;28;20105;-72
2022/11/12 05:25:09;;;;;;;7.28;4.80;;;9.00;98.90;;;;;;5001481;28;20157;-70
2022/11/12 05:27:35;;;;;;;6.55;4.35;;;9.00;98.90;;;;;;5002025;28;21297;-70
2022/11/12 05:30:02;;;;;;;5.55;3.80;;;9.00;98.90;;;;;;5000527;28;20033;-71
2022/11/12 05:32:27;;;;;;;7.82;3.88;;;9.00;98.90;;;;;;5001432;28;20057;-71
2022/11/12 05:34:53;;;;;;;6.05;3.72;;;9.00;98.90;;;;;;5017358;28;20241;-70
2022/11/12 05:37:19;;;;;;;6.57;3.92;;;8.90;98.90;;;;;;5001883;28;20045;-70
2022/11/12 05:39:44;;;;;;;6.95;4.45;;;8.90;99.00;;;;;;4999994;28;20481;-70
2022/11/12 05:42:10;;;;;;;7.07;3.90;;;8.90;99.00;;;;;;5002960;28;21004;-70
2022/11/12 05:44:36;;;;;;;8.00;4.43;;;8.80;98.90;;;;;;5001731;28;20053;-69
2022/11/12 05:47:02;;;;;;;7.55;3.88;;;8.90;98.90;;;;;;5002741;28;20033;-70
2022/11/12 05:49:28;;;;;;;8.50;4.72;;;8.80;99.00;;;;;;5002551;28;20025;-70
2022/11/12 05:51:54;;;;;;;6.38;3.85;;;8.70;99.10;;;;;;5001157;28;20027;-70
2022/11/12 05:54:19;;;;;;;5.68;4.05;;;8.70;99.10;;;;;;4999347;28;20026;-70
2022/11/12 05:56:45;;;;;;;7.80;4.55;;;8.70;99.10;;;;;;5001137;28;20021;-70
2022/11/12 05:59:12;;;;;;;7.88;4.55;;;8.70;99.10;;;;;;5002091;28;20107;-70
2022/11/12 06:01:45;;;;;;;6.97;3.92;;;8.70;99.10;;;;;;5001974;28;20291;-69
2022/11/12 06:04:13;;;;;;;6.88;4.45;;;8.70;99.10;;;;;;5000537;28;20033;-69
2022/11/12 06:06:40;;;;;;;8.27;4.45;;;8.60;99.00;;;;;;5002827;28;20033;-69
2022/11/12 06:09:07;;;;;;;6.13;4.22;;;8.60;99.20;;;;;;5000870;28;20057;-69
2022/11/12 06:11:33;;;;;;;8.88;5.57;;;8.60;99.20;;;;;;5002465;28;20088;-69
2022/11/12 06:13:59;;;;;;;6.75;4.28;;;8.60;99.20;;;;;;5004334;28;20033;-70
2022/11/12 06:16:25;;;;;;;6.28;4.15;;;8.60;99.10;;;;;;5001741;28;20030;-70
2022/11/12 06:18:51;;;;;;;8.07;4.40;;;8.60;99.10;;;;;;5001529;28;20054;-71
2022/11/12 06:21:23;;;;;;;5.90;4.00;;;8.60;99.10;;;;;;5000942;28;20026;-70
2022/11/12 06:23:55;;;;;;;7.13;4.35;;;8.60;99.10;;;;;;5000066;28;20088;-70
2022/11/12 06:26:22;;;;;;;6.50;4.25;;;8.50;99.10;;;;;;5001402;28;20038;-70
2022/11/12 06:28:48;;;;;;;6.40;4.43;;;8.50;99.20;;;;;;5000212;28;20045;-70
2022/11/12 06:31:16;;;;;;;7.00;4.53;;;8.60;99.40;;;;;;5000282;28;20036;-71
2022/11/12 06:33:43;;;;;;;7.95;4.50;;;8.50;99.40;;;;;;5001059;28;20478;-70
2022/11/12 06:36:10;;;;;;;8.55;5.10;;;8.50;99.40;;;;;;4999706;28;20061;-70
2022/11/12 06:38:38;;;;;;;6.60;4.78;;;8.40;99.40;;;;;;5000106;28;20042;-69
2022/11/12 06:41:05;;;;;;;6.72;4.20;;;8.50;99.50;;;;;;5000192;28;20044;-70
2022/11/12 06:43:31;;;;;;;6.95;4.43;;;8.50;99.50;;;;;;5000477;28;20038;-70
2022/11/12 06:46:01;;;;;;;6.85;4.15;;;8.50;99.50;;;;;;5001171;28;20018;-70
2022/11/12 06:48:27;;;;;;;7.90;4.47;;;8.50;99.60;;;;;;4999814;28;20539;-71
2022/11/12 06:50:54;;;;;;;7.43;4.10;;;8.50;99.70;;;;;;5001264;28;20033;-70
2022/11/12 06:53:20;;;;;;;6.05;4.35;;;8.50;99.70;;;;;;5000277;28;20654;-71
2022/11/12 06:55:47;;;;;;;6.97;4.78;;;8.50;99.90;;;;;;5013559;28;20060;-70
2022/11/12 06:58:12;;;;;;;10.15;4.78;;;8.60;99.70;;;;;;5006685;28;20076;-70
2022/11/12 07:00:38;;;;;;;9.60;5.18;;;8.50;99.70;;;;;;5008224;28;20033;-70
2022/11/12 07:03:08;;;;;;;8.65;5.13;;;8.60;99.80;;;;;;5001758;28;20046;-71
2022/11/12 07:05:37;;;;;;;7.20;4.72;;;8.60;99.80;;;;;;5002134;28;20112;-70
2022/11/12 07:08:04;;;;;;;7.03;4.20;;;8.70;99.80;;;;;;4999094;28;20049;-70
2022/11/12 07:10:30;;;;;;;7.53;4.82;;;8.70;99.70;;;;;;4999877;28;20034;-70
2022/11/12 07:12:56;;;;;;;8.10;4.95;;;8.70;99.60;;;;;;5006010;28;20037;-70
2022/11/12 07:15:22;;;;;;;9.80;4.72;;;8.70;99.70;;;;;;5000968;28;20115;-75
2022/11/12 07:17:47;;;;;;;7.07;4.22;;;8.70;99.80;;;;;;5003016;28;20034;-71
2022/11/12 07:20:13;;;;;;;8.13;4.32;;;8.70;99.80;;;;;;4998266;28;20425;-71
2022/11/12 07:22:39;;;;;;;6.63;5.00;;;8.80;99.80;;;;;;5002054;28;20033;-75
2022/11/12 07:25:06;;;;;;;8.68;4.53;;;8.80;99.80;;;;;;4998219;28;20032;-66
2022/11/12 07:27:32;;;;;;;7.07;4.63;;;8.80;99.90;;;;;;4999197;28;20034;-66
2022/11/12 07:29:58;;;;;;;6.38;4.53;;;8.90;99.90;;;;;;4999863;28;20026;-66
2022/11/12 07:32:25;;;;;;;7.72;4.90;;;8.90;99.80;;;;;;5000832;28;20045;-66
2022/11/12 07:34:51;;;;;;;8.02;5.20;;;8.90;99.90;;;;;;4997621;28;20052;-67
2022/11/12 07:37:16;;;;;;;17.52;5.93;;;8.90;99.90;;;;;;4999650;28;20029;-66
2022/11/12 07:39:42;;;;;;;9.60;5.70;;;9.00;99.90;;;;;;4998319;28;20041;-67
2022/11/12 07:42:07;;;;;;;9.68;5.72;;;9.00;99.90;;;;;;4999109;28;20018;-67
2022/11/12 07:44:33;;;;;;;7.97;5.45;;;9.10;99.90;;;;;;5001521;28;20099;-67
2022/11/12 07:46:59;;;;;;;12.30;5.45;;;9.10;99.90;;;;;;5000142;28;20026;-68
2022/11/12 07:49:24;;;;;;;9.27;5.03;;;9.20;99.90;;;;;;4998451;28;20030;-66
2022/11/12 07:51:50;;;;;;;7.82;5.20;;;9.30;99.90;;;;;;4998989;28;20056;-68
2022/11/12 07:54:15;;;;;;;8.13;6.15;;;9.30;99.90;;;;;;4998453;28;20025;-67
2022/11/12 07:56:41;;;;;;;7.63;4.72;;;9.30;99.90;;;;;;5000286;28;20133;-67
2022/11/12 07:59:08;;;;;;;9.73;5.47;;;9.40;99.90;;;;;;4999225;28;20044;-70
2022/11/12 08:01:36;;;;;;;8.10;4.57;;;9.50;99.90;;;;;;4999600;28;20602;-67
2022/11/12 08:04:05;;;;;;;6.55;4.72;;;9.60;99.90;;;;;;4999398;28;20045;-65
2022/11/12 08:06:32;;;;;;;8.48;5.40;;;9.60;99.90;;;;;;5000855;28;20117;-67
2022/11/12 08:09:01;;;;;;;8.63;5.40;;;9.70;99.90;;;;;;5003259;28;20055;-67
2022/11/12 08:11:26;;;;;;;8.65;5.53;;;9.80;99.90;;;;;;5001163;28;20021;-66
2022/11/12 08:13:52;;;;;;;9.85;5.57;;;9.90;99.90;;;;;;5004627;28;20083;-65
2022/11/12 08:16:18;;;;;;;12.57;6.20;;;9.90;99.80;;;;;;4996149;28;20022;-66
2022/11/12 08:18:45;;;;;;;8.05;4.90;;;9.90;99.80;;;;;;5003056;28;20099;-65
2022/11/12 08:21:12;;;;;;;12.10;5.75;;;10.00;99.70;;;;;;4998379;28;20382;-65
2022/11/12 08:23:38;;;;;;;7.20;5.40;;;10.00;99.80;;;;;;4998169;28;20030;-66
2022/11/12 08:26:06;;;;;;;10.27;6.35;;;10.10;99.60;;;;;;4999188;28;20482;-66
2022/11/12 08:28:34;;;;;;;9.23;5.43;;;10.10;99.80;;;;;;4997458;28;20068;-66
2022/11/12 08:31:17;;;;;;;12.00;5.88;;;10.10;99.50;;;;;;5001931;28;20030;-66
2022/11/12 08:33:44;;;;;;;7.85;4.88;;;10.20;99.50;;;;;;4998724;28;20044;-65
2022/11/12 08:36:11;;;;;;;9.25;5.90;;;10.30;99.40;;;;;;4998864;28;20026;-66
2022/11/12 08:38:38;;;;;;;7.85;5.72;;;10.30;99.30;;;;;;4999862;28;20042;-66
2022/11/12 08:41:07;;;;;;;7.97;5.60;;;10.30;99.20;;;;;;4997697;28;20025;-65
2022/11/12 08:43:33;;;;;;;7.28;5.10;;;10.40;99.20;;;;;;4997848;28;20048;-66
2022/11/12 08:46:00;;;;;;;7.45;5.85;;;10.40;99.10;;;;;;4997772;28;20030;-66
2022/11/12 08:48:28;;;;;;;8.35;5.60;;;10.50;99.10;;;;;;4999686;28;20124;-66
2022/11/12 08:50:54;;;;;;;8.77;5.85;;;10.50;99.00;;;;;;5001541;28;20038;-66
2022/11/12 08:53:22;;;;;;;9.32;5.68;;;10.50;98.90;;;;;;4998240;28;20023;-65
2022/11/12 08:55:53;;;;;;;8.52;6.72;;;10.60;99.00;;;;;;4998463;28;20046;-65
2022/11/12 08:58:18;;;;;;;11.38;6.68;;;10.60;98.90;;;;;;4998707;28;20045;-66
2022/11/12 09:00:45;;;;;;;10.45;7.15;;;10.60;98.90;;;;;;4998575;28;20404;-66
2022/11/12 09:03:19;;;;;;;14.32;7.20;;;10.70;98.90;;;;;;4998846;28;20042;-66
2022/11/12 09:05:45;;;;;;;9.55;6.85;;;10.70;98.80;;;;;;4998182;28;21794;-66
2022/11/12 09:08:13;;;;;;;11.07;6.85;;;10.80;98.90;;;;;;4998252;28;20046;-65
2022/11/12 09:10:39;;;;;;;11.10;7.85;;;10.90;99.10;;;;;;4998303;28;20072;-66
2022/11/12 09:13:05;;;;;;;10.40;7.30;;;10.90;98.80;;;;;;4999816;28;20026;-65
2022/11/12 09:15:31;;;;;;;9.73;6.55;;;11.00;98.80;;;;;;5001236;28;20085;-67
2022/11/12 09:17:59;;;;;;;11.07;7.72;;;11.00;98.80;;;;;;4999692;28;20129;-67
2022/11/12 09:20:27;;;;;;;11.65;7.40;;;11.10;98.70;;;;;;4997483;28;20048;-67
2022/11/12 09:22:57;;;;;;;12.65;8.57;;;11.10;98.70;;;;;;4999364;28;20056;-66
2022/11/12 09:25:25;;;;;;;14.68;8.60;;;11.20;98.90;;;;;;4995802;28;20334;-67
2022/11/12 09:27:50;;;;;;;18.65;9.43;;;11.20;98.70;;;;;;4997009;28;20089;-66
2022/11/12 09:30:16;;;;;;;16.42;7.93;;;11.30;98.70;;;;;;4997539;28;20038;-67
2022/11/12 09:32:41;;;;;;;13.27;8.13;;;11.30;98.70;;;;;;4999169;28;20030;-65
2022/11/12 09:35:07;;;;;;;12.70;8.50;;;11.40;98.70;;;;;;4999470;28;20026;-68
2022/11/12 09:37:35;;;;;;;14.00;8.88;;;11.50;98.70;;;;;;4999456;28;20045;-65
2022/11/12 09:40:01;;;;;;;13.18;9.73;;;11.50;98.70;;;;;;5000560;28;20050;-67
2022/11/12 09:42:30;;;;;;;16.33;10.23;;;11.50;98.70;;;;;;4998538;28;20533;-66
2022/11/12 09:45:02;;;;;;;13.15;9.20;;;11.60;98.70;;;;;;5001666;28;20096;-67
2022/11/12 09:47:39;;;;;;;13.52;10.00;;;11.60;98.70;;;;;;5001458;28;20183;-66
2022/11/12 09:50:31;;;;;;;14.38;9.98;;;11.70;98.70;;;;;;4999497;28;20034;-69
2022/11/12 09:53:13;;;;;;;14.68;10.70;;;11.80;98.70;;;;;;5001817;28;20100;-67
2022/11/12 09:55:42;;;;;;;14.95;10.10;;;11.90;98.70;;;;;;4999353;28;20524;-67
2022/11/12 09:58:13;;;;;;;14.82;9.95;;;11.90;98.80;;;;;;5001063;28;20042;-67
2022/11/12 10:00:56;;;;;;;15.85;10.55;;;12.00;98.80;;;;;;5001405;28;20511;-68
2022/11/12 10:03:56;;;;;;;19.27;11.38;;;12.10;98.90;;;;;;5000792;28;20181;-68
2022/11/12 10:06:34;;;;;;;15.30;9.80;;;12.10;98.90;;;;;;5000486;28;20041;-68
2022/11/12 10:09:08;;;;;;;15.43;9.02;;;12.20;99.00;;;;;;5001456;28;20030;-67
2022/11/12 10:14:35;;;;;;;15.25;10.20;;;12.30;99.10;;;;;;5000971;28;20037;-67
2022/11/12 10:17:17;;;;;;;17.40;10.43;;;12.30;99.10;;;;;;5001098;28;20038;-66
2022/11/12 10:20:20;;;;;;;19.25;10.32;;;12.40;99.20;;;;;;4998697;28;20088;-67
2022/11/12 10:23:08;;;;;;;14.00;9.13;;;12.40;99.20;;;;;;4999655;28;20029;-67
2022/11/12 10:25:36;;;;;;;15.13;9.52;;;12.50;99.20;;;;;;5002312;28;20124;-67
2022/11/12 10:28:15;;;;;;;16.02;10.32;;;12.60;99.20;;;;;;5001893;28;20539;-66
2022/11/12 10:30:42;;;;;;;15.73;10.77;;;12.60;99.20;;;;;;4999943;28;20088;-67
2022/11/12 10:33:13;;;;;;;17.40;9.52;;;12.70;99.20;;;;;;5001180;28;20080;-68
2022/11/12 10:35:40;;;;;;;16.17;10.60;;;12.80;99.20;;;;;;5003513;28;20045;-67
2022/11/12 10:38:13;;;;;;;15.02;10.40;;;12.80;99.10;;;;;;5004220;28;20044;-67
2022/11/12 10:40:40;;;;;;;16.40;9.80;;;12.90;99.10;;;;;;5000342;28;20037;-68
2022/11/12 10:43:21;;;;;;;16.77;10.65;;;13.00;99.10;;;;;;5000263;28;20026;-68
2022/11/12 10:45:48;;;;;;;15.30;10.13;;;13.10;99.10;;;;;;5001285;28;20034;-68
2022/11/12 10:48:20;;;;;;;16.50;11.02;;;13.10;99.00;;;;;;5001347;28;20026;-68
2022/11/12 10:50:46;;;;;;;15.60;10.13;;;13.20;99.00;;;;;;5001241;28;20034;-68
2022/11/12 10:53:12;;;;;;;16.38;10.70;;;13.30;99.00;;;;;;5000039;28;20030;-68
2022/11/12 10:55:55;;;;;;;14.32;10.43;;;13.40;99.00;;;;;;5000172;28;20123;-68
2022/11/12 10:58:21;;;;;;;16.33;10.20;;;13.50;98.90;;;;;;5000186;28;20530;-68
2022/11/12 11:00:55;;;;;;;12.68;10.02;;;13.50;98.80;;;;;;4998958;28;20030;-68
2022/11/12 11:03:27;;;;;;;17.23;9.88;;;13.60;98.80;;;;;;5000160;28;20112;-68
2022/11/12 11:06:05;;;;;;;17.85;10.43;;;13.70;98.80;;;;;;5001752;28;20048;-69
2022/11/12 11:08:38;;;;;;;12.90;8.73;;;13.80;98.70;;;;;;5000537;28;20033;-67
2022/11/12 11:11:13;;;;;;;15.80;9.38;;;13.80;98.60;;;;;;5004918;28;20044;-68
2022/11/12 11:13:39;;;;;;;13.23;8.70;;;13.90;98.60;;;;;;5000438;28;20033;-68
2022/11/12 11:16:11;;;;;;;16.13;10.10;;;13.90;98.60;;;;;;5002210;28;20038;-68
2022/11/12 11:18:40;;;;;;;13.57;8.68;;;14.10;98.60;;;;;;5000805;28;20058;-67
2022/11/12 11:21:30;;;;;;;14.55;9.57;;;14.10;98.50;;;;;;5000378;28;20041;-68
2022/11/12 11:24:20;;;;;;;19.02;9.82;;;14.20;98.50;;;;;;4999084;28;20109;-68
2022/11/12 11:27:20;;;;;;;11.90;8.63;;;14.20;98.40;;;;;;5000660;28;20133;-68
2022/11/12 11:30:04;;;;;;;12.40;8.98;;;14.30;98.40;;;;;;4997320;28;20033;-68
2022/11/12 11:32:50;;;;;;;17.67;9.75;;;14.40;98.40;;;;;;5000153;28;20040;-68
2022/11/12 11:35:34;;;;;;;12.93;8.82;;;14.40;98.30;;;;;;4998953;28;20036;-67
2022/11/12 11:38:16;;;;;;;15.20;9.35;;;14.40;98.30;;;;;;4997429;28;20061;-68
2022/11/12 11:41:06;;;;;;;11.80;8.68;;;14.40;98.20;;;;;;5000342;28;20041;-68
2022/11/12 11:43:50;;;;;;;14.57;8.07;;;14.40;98.10;;;;;;4999162;28;20081;-67
2022/11/12 11:46:50;;;;;;;14.60;8.63;;;14.40;98.20;;;;;;4999723;28;20024;-67
2022/11/12 11:49:40;;;;;;;14.35;8.45;;;14.50;98.20;;;;;;4995483;28;20042;-67
2022/11/12 11:52:35;;;;;;;17.00;8.00;;;14.50;98.10;;;;;;4997445;28;20038;-67
2022/11/12 11:55:27;;;;;;;11.52;7.32;;;14.50;98.20;;;;;;4997685;28;20041;-69
2022/11/12 11:58:14;;;;;;;12.48;7.97;;;14.50;98.20;;;;;;4997901;28;20045;-67
2022/11/12 12:00:57;;;;;;;11.48;7.60;;;14.60;98.20;;;;;;4998752;28;20484;-68
2022/11/12 12:03:29;;;;;;;10.55;6.72;;;14.60;98.30;;;;;;4997935;28;20517;-67
2022/11/12 12:06:18;;;;;;;13.25;7.75;;;14.70;98.10;;;;;;4996923;28;20441;-67
2022/11/12 12:09:05;;;;;;;12.23;8.38;;;14.70;98.20;;;;;;4995474;28;20037;-66
2022/11/12 12:12:17;;;;;;;12.68;7.45;;;14.70;98.00;;;;;;4997540;28;20030;-67
2022/11/12 12:14:43;;;;;;;12.95;7.25;;;14.80;97.90;;;;;;5020986;28;20077;-66
2022/11/12 12:17:35;;;;;;;13.25;8.05;;;14.80;97.90;;;;;;5000616;28;20046;-67
2022/11/12 12:20:42;;;;;;;15.50;8.07;;;14.80;97.80;;;;;;4998453;28;20054;-67
2022/11/12 12:23:14;;;;;;;11.75;7.60;;;14.90;98.00;;;;;;4996150;28;20038;-66
2022/11/12 12:25:41;;;;;;;9.93;6.97;;;14.80;97.80;;;;;;4998070;28;20520;-67
2022/11/12 12:28:37;;;;;;;11.27;6.97;;;14.80;97.80;;;;;;4996176;28;20033;-67
2022/11/12 12:31:16;;;;;;;11.90;7.50;;;14.90;97.70;;;;;;4998015;28;20033;-67
2022/11/12 12:33:53;;;;;;;12.23;7.43;;;14.90;97.60;;;;;;4999043;28;20428;-68
2022/11/12 12:36:40;;;;;;;12.90;7.00;;;14.90;97.60;;;;;;4996987;28;20429;-68
2022/11/12 12:39:21;;;;;;;14.38;7.45;;;14.90;97.60;;;;;;4998120;28;20096;-67
2022/11/12 12:41:59;;;;;;;11.82;7.88;;;14.90;97.50;;;;;;4998213;28;20025;-67
2022/11/12 12:44:58;;;;;;;12.77;7.65;;;14.90;97.50;;;;;;4996996;28;20472;-68
2022/11/12 12:47:18;;;;;;;10.45;7.32;;;14.90;97.50;;;;;;4998563;28;20460;-67
2022/11/12 12:49:48;;;;;;;11.43;6.07;;;14.80;97.50;;;;;;4998703;28;20049;-68
2022/11/12 12:52:16;;;;;;;14.18;7.03;;;14.80;97.50;;;;;;4997582;28;20034;-68
2022/11/12 12:54:51;;;;;;;12.05;6.38;;;14.90;97.60;;;;;;4997445;28;20042;-68
2022/11/12 12:57:37;;;;;;;10.95;7.22;;;14.90;97.50;;;;;;4999096;28;20030;-67
2022/11/12 13:00:38;;;;;;;12.15;7.53;;;14.90;97.50;;;;;;4997407;28;20175;-67
2022/11/12 13:03:05;;;;;;;12.18;7.88;;;14.90;97.60;;;;;;4997602;28;20034;-67
2022/11/12 13:05:35;;;;;;;11.05;7.47;;;14.90;97.60;;;;;;4998884;28;20033;-67
2022/11/12 13:08:12;;;;;;;11.52;7.07;;;14.90;97.50;;;;;;4998134;28;20156;-68
2022/11/12 13:10:49;;;;;;;14.45;7.18;;;14.90;97.50;;;;;;5002891;28;20069;-68
2022/11/12 13:13:20;;;;;;;15.30;9.10;;;14.90;97.40;;;;;;4997090;28;20056;-68
2022/11/12 13:15:48;;;;;;;17.35;9.05;;;14.90;97.40;;;;;;5000179;28;20053;-68
2022/11/12 13:18:37;;;;;;;13.07;8.70;;;15.00;97.30;;;;;;4998778;28;20887;-68
2022/11/12 13:21:16;;;;;;;14.07;8.38;;;15.00;97.30;;;;;;4998638;28;20053;-68
2022/11/12 13:24:09;;;;;;;13.90;9.00;;;15.00;97.30;;;;;;4999738;28;20119;-67